createdAt,value
2022-09-09T00:00:28.560Z,16.10
2022-09-09T00:03:16.281Z,16.10
2022-09-09T00:05:50.633Z,16.10
2022-09-09T00:08:26.378Z,16.00
2022-09-09T00:11:06.393Z,16.00
2022-09-09T00:13:50.360Z,16.00
2022-09-09T00:16:33.192Z,15.90
2022-09-09T00:19:44.049Z,15.90
2022-09-09T00:22:28.077Z,15.80
2022-09-09T00:25:17.249Z,15.70
2022-09-09T00:27:50.228Z,15.70
2022-09-09T00:30:26.835Z,15.70
2022-09-09T00:33:04.326Z,15.70
2022-09-09T00:35:37.010Z,15.60
2022-09-09T00:38:51.039Z,15.60
2022-09-09T00:41:52.524Z,15.60
2022-09-09T00:44:36.860Z,15.60
2022-09-09T00:47:32.454Z,15.60
2022-09-09T00:50:11.918Z,15.60
2022-09-09T00:52:54.610Z,15.60
2022-09-09T00:55:36.516Z,15.50
2022-09-09T00:58:04.377Z,15.50
2022-09-09T01:00:37.478Z,15.50
2022-09-09T01:03:18.665Z,15.50
2022-09-09T01:05:58.220Z,15.50
2022-09-09T01:08:57.104Z,15.40
2022-09-09T01:11:30.678Z,15.40
2022-09-09T01:14:11.366Z,15.40
2022-09-09T01:16:39.450Z,15.40
2022-09-09T01:19:12.179Z,15.40
2022-09-09T01:22:17.498Z,15.30
2022-09-09T01:25:23.915Z,15.30
2022-09-09T01:27:54.107Z,15.20
2022-09-09T01:30:23.211Z,15.30
2022-09-09T01:32:55.290Z,15.30
2022-09-09T01:35:31.911Z,15.30
2022-09-09T01:37:59.605Z,15.30
2022-09-09T01:40:27.747Z,15.20
2022-09-09T01:42:56.005Z,15.20
2022-09-09T01:45:28.055Z,15.20
2022-09-09T01:47:55.805Z,15.10
2022-09-09T01:50:23.810Z,15.10
2022-09-09T01:52:57.518Z,15.00
2022-09-09T01:55:40.544Z,15.00
2022-09-09T01:58:36.849Z,15.00
2022-09-09T02:01:19.541Z,15.00
2022-09-09T02:03:55.480Z,15.00
2022-09-09T02:06:33.696Z,14.90
2022-09-09T02:09:05.574Z,14.90
2022-09-09T02:11:33.561Z,14.80
2022-09-09T02:14:26.642Z,14.70
2022-09-09T02:17:03.183Z,14.60
2022-09-09T02:19:42.278Z,14.60
2022-09-09T02:22:10.489Z,14.60
2022-09-09T02:24:40.276Z,14.60
2022-09-09T02:27:10.493Z,14.70
2022-09-09T02:29:44.385Z,14.70
2022-09-09T02:32:19.837Z,14.80
2022-09-09T02:34:51.693Z,14.80
2022-09-09T02:37:21.425Z,14.70
2022-09-09T02:39:49.157Z,14.70
2022-09-09T02:42:16.552Z,14.70
2022-09-09T02:44:44.182Z,14.70
2022-09-09T02:47:37.978Z,14.70
2022-09-09T02:50:24.078Z,14.70
2022-09-09T02:53:16.444Z,14.80
2022-09-09T02:56:05.270Z,14.80
2022-09-09T02:58:33.053Z,14.80
2022-09-09T03:01:02.500Z,14.80
2022-09-09T03:03:30.368Z,14.70
2022-09-09T03:05:58.351Z,14.70
2022-09-09T03:08:25.630Z,14.60
2022-09-09T03:10:55.572Z,14.60
2022-09-09T03:13:22.949Z,14.60
2022-09-09T03:15:50.209Z,14.50
2022-09-09T03:18:17.737Z,14.60
2022-09-09T03:20:45.192Z,14.60
2022-09-09T03:23:15.948Z,14.70
2022-09-09T03:25:51.166Z,14.60
2022-09-09T03:28:18.706Z,14.60
2022-09-09T03:30:45.973Z,14.50
2022-09-09T03:33:13.959Z,14.40
2022-09-09T03:35:50.195Z,14.40
2022-09-09T03:38:18.306Z,14.40
2022-09-09T03:40:56.397Z,14.40
2022-09-09T03:43:25.264Z,14.40
2022-09-09T03:45:53.209Z,14.40
2022-09-09T03:48:21.056Z,14.40
2022-09-09T03:50:50.182Z,14.40
2022-09-09T03:53:20.460Z,14.30
2022-09-09T03:55:48.848Z,14.30
2022-09-09T03:58:17.667Z,14.30
2022-09-09T04:00:46.300Z,14.30
2022-09-09T04:03:13.681Z,14.30
2022-09-09T04:05:43.569Z,14.30
2022-09-09T04:08:11.154Z,14.30
2022-09-09T04:10:38.498Z,14.30
2022-09-09T04:13:06.678Z,14.40
2022-09-09T04:15:36.040Z,14.40
2022-09-09T04:18:03.530Z,14.40
2022-09-09T04:20:31.517Z,14.40
2022-09-09T04:22:59.141Z,14.40
2022-09-09T04:25:26.682Z,14.40
2022-09-09T04:27:57.835Z,14.40
2022-09-09T04:30:26.464Z,14.40
2022-09-09T04:32:53.694Z,14.30
2022-09-09T04:35:21.399Z,14.30
2022-09-09T04:37:49.888Z,14.40
2022-09-09T04:40:17.297Z,14.40
2022-09-09T04:42:45.294Z,14.40
2022-09-09T04:45:12.829Z,14.40
2022-09-09T04:47:40.233Z,14.30
2022-09-09T04:50:08.337Z,14.30
2022-09-09T04:52:36.949Z,14.40
2022-09-09T04:55:05.298Z,14.40
2022-09-09T04:57:33.548Z,14.40
2022-09-09T05:00:01.320Z,14.40
2022-09-09T05:02:31.484Z,14.40
2022-09-09T05:04:59.591Z,14.40
2022-09-09T05:07:29.180Z,14.50
2022-09-09T05:09:56.906Z,14.50
2022-09-09T05:12:26.965Z,14.50
2022-09-09T05:14:54.638Z,14.60
2022-09-09T05:17:22.779Z,14.60
2022-09-09T05:19:50.580Z,14.70
2022-09-09T05:22:24.572Z,14.80
2022-09-09T05:24:55.244Z,14.90
2022-09-09T05:27:23.014Z,15.00
2022-09-09T05:29:50.353Z,15.10
2022-09-09T05:32:18.434Z,15.20
2022-09-09T05:34:45.700Z,15.40
2022-09-09T05:37:13.248Z,15.50
2022-09-09T05:39:40.760Z,15.60
2022-09-09T05:42:08.476Z,15.80
2022-09-09T05:44:35.987Z,16.00
2022-09-09T05:47:04.102Z,16.10
2022-09-09T05:49:31.467Z,16.30
2022-09-09T05:51:58.760Z,16.50
2022-09-09T05:54:26.623Z,16.70
2022-09-09T05:56:54.869Z,16.80
2022-09-09T05:59:23.243Z,16.80
2022-09-09T06:01:50.646Z,16.90
2022-09-09T06:04:18.061Z,17.00
2022-09-09T06:06:45.341Z,17.10
2022-09-09T06:09:13.157Z,17.20
2022-09-09T06:11:41.651Z,17.30
2022-09-09T06:14:09.700Z,17.40
2022-09-09T06:16:39.001Z,17.50
2022-09-09T06:19:06.531Z,17.60
2022-09-09T06:21:41.453Z,17.70
2022-09-09T06:24:08.980Z,17.90
2022-09-09T06:26:44.067Z,18.00
2022-09-09T06:29:11.937Z,18.20
2022-09-09T06:31:39.608Z,18.30
2022-09-09T06:34:08.705Z,18.50
2022-09-09T06:36:38.600Z,18.60
2022-09-09T06:39:10.869Z,18.70
2022-09-09T06:41:41.387Z,18.60
2022-09-09T06:44:16.707Z,18.60
2022-09-09T06:46:44.653Z,18.70
2022-09-09T06:49:11.973Z,18.90
2022-09-09T06:51:44.233Z,19.00
2022-09-09T06:54:13.135Z,19.20
2022-09-09T06:56:44.730Z,19.20
2022-09-09T06:59:13.447Z,19.40
2022-09-09T07:01:43.172Z,19.50
2022-09-09T07:04:12.280Z,19.50
2022-09-09T07:06:45.469Z,19.60
2022-09-09T07:09:16.216Z,19.80
2022-09-09T07:11:49.085Z,19.80
2022-09-09T07:14:16.852Z,19.90
2022-09-09T07:16:45.259Z,20.00
2022-09-09T07:19:13.823Z,20.20
2022-09-09T07:21:41.694Z,20.30
2022-09-09T07:24:13.658Z,20.50
2022-09-09T07:26:41.749Z,20.60
2022-09-09T07:29:10.191Z,20.90
2022-09-09T07:31:39.359Z,21.10
2022-09-09T07:34:07.385Z,21.20
2022-09-09T07:36:37.266Z,21.30
2022-09-09T07:39:07.558Z,21.10
2022-09-09T07:41:41.088Z,20.90
2022-09-09T07:44:12.086Z,20.90
2022-09-09T07:46:43.154Z,21.10
2022-09-09T07:49:12.171Z,21.30
2022-09-09T07:51:42.205Z,21.40
2022-09-09T07:54:12.698Z,21.40
2022-09-09T07:56:41.846Z,21.50
2022-09-09T07:59:11.589Z,21.70
2022-09-09T08:01:45.023Z,21.80
2022-09-09T08:04:20.845Z,21.90
2022-09-09T08:06:54.221Z,22.00
2022-09-09T08:09:23.085Z,21.80
2022-09-09T08:11:50.386Z,21.50
2022-09-09T08:14:17.958Z,21.30
2022-09-09T08:16:48.239Z,21.20
2022-09-09T08:19:18.819Z,21.10
2022-09-09T08:21:46.698Z,21.10
2022-09-09T08:24:17.937Z,21.20
2022-09-09T08:26:48.702Z,21.30
2022-09-09T08:29:16.906Z,21.40
2022-09-09T08:31:50.220Z,21.50
2022-09-09T08:34:21.367Z,21.60
2022-09-09T08:36:50.118Z,21.70
2022-09-09T08:39:20.171Z,21.90
2022-09-09T08:42:03.883Z,22.10
2022-09-09T08:45:03.942Z,22.20
2022-09-09T08:47:55.977Z,22.30
2022-09-09T08:50:29.484Z,22.30
2022-09-09T08:53:07.436Z,22.20
2022-09-09T08:56:00.525Z,22.10
2022-09-09T08:58:31.794Z,22.10
2022-09-09T09:01:11.551Z,22.30
2022-09-09T09:04:08.381Z,22.50
2022-09-09T09:06:44.654Z,22.70
2022-09-09T09:09:32.475Z,22.80
2022-09-09T09:12:04.869Z,22.90
2022-09-09T09:14:35.559Z,23.30
2022-09-09T09:17:11.237Z,23.60
2022-09-09T09:19:42.318Z,24.00
2022-09-09T09:22:26.641Z,24.30
2022-09-09T09:24:55.524Z,24.50
2022-09-09T09:27:49.126Z,24.50
2022-09-09T09:30:29.399Z,24.50
2022-09-09T09:33:15.029Z,24.50
2022-09-09T09:35:44.408Z,24.70
2022-09-09T09:41:16.822Z,24.90
2022-09-09T09:43:55.152Z,24.90
2022-09-09T09:46:25.150Z,25.40
2022-09-09T09:49:06.934Z,25.90
2022-09-09T09:51:35.396Z,25.90
2022-09-09T09:54:14.616Z,26.00
2022-09-09T09:56:44.116Z,25.60
2022-09-09T09:59:39.201Z,25.60
2022-09-09T10:02:14.336Z,25.40
2022-09-09T10:04:42.679Z,25.50
2022-09-09T10:07:14.887Z,25.50
2022-09-09T10:09:42.386Z,25.60
2022-09-09T10:12:18.443Z,25.90
2022-09-09T10:14:48.973Z,26.50
2022-09-09T10:17:57.667Z,26.80
2022-09-09T10:20:39.550Z,27.20
2022-09-09T10:23:33.050Z,27.10
2022-09-09T10:26:14.840Z,27.00
2022-09-09T10:29:08.915Z,27.00
2022-09-09T10:31:58.176Z,26.60
2022-09-09T10:34:47.458Z,25.80
2022-09-09T10:37:46.450Z,25.00
2022-09-09T10:40:23.285Z,24.60
2022-09-09T10:42:50.894Z,24.50
2022-09-09T10:45:24.788Z,24.60
2022-09-09T10:48:11.078Z,24.60
2022-09-09T10:51:00.956Z,24.90
2022-09-09T10:53:39.999Z,25.20
2022-09-09T10:56:16.016Z,25.30
2022-09-09T10:58:56.556Z,25.30
2022-09-09T11:01:33.779Z,25.20
2022-09-09T11:04:12.926Z,24.90
2022-09-09T11:06:45.703Z,24.70
2022-09-09T11:09:19.669Z,24.80
2022-09-09T11:11:55.026Z,24.80
2022-09-09T11:14:39.182Z,24.70
2022-09-09T11:17:35.406Z,24.60
2022-09-09T11:20:03.341Z,24.80
2022-09-09T11:22:43.938Z,25.30
2022-09-09T11:25:36.142Z,26.10
2022-09-09T11:28:28.197Z,27.00
2022-09-09T11:31:24.588Z,27.70
2022-09-09T11:34:16.305Z,27.80
2022-09-09T11:36:57.920Z,27.90
2022-09-09T11:39:28.425Z,28.30
2022-09-09T11:42:08.056Z,28.70
2022-09-09T11:44:35.509Z,28.70
2022-09-09T11:47:02.864Z,28.40
2022-09-09T11:49:43.170Z,28.50
2022-09-09T11:52:26.931Z,28.40
2022-09-09T11:54:57.696Z,27.70
2022-09-09T11:57:35.596Z,27.00
2022-09-09T12:00:04.448Z,26.80
2022-09-09T12:02:35.706Z,26.90
2022-09-09T12:05:10.521Z,26.90
2022-09-09T12:07:49.489Z,27.20
2022-09-09T12:10:31.068Z,27.20
2022-09-09T12:13:23.362Z,27.20
2022-09-09T12:15:56.847Z,27.00
2022-09-09T12:18:33.141Z,26.60
2022-09-09T12:21:34.659Z,26.00
2022-09-09T12:24:12.911Z,25.80
2022-09-09T12:26:45.876Z,25.90
2022-09-09T12:29:31.371Z,26.10
2022-09-09T12:32:09.305Z,26.20
2022-09-09T12:35:01.889Z,26.30
2022-09-09T12:37:37.005Z,26.30
2022-09-09T12:40:40.390Z,26.20
2022-09-09T12:43:24.680Z,25.90
2022-09-09T12:45:59.052Z,25.80
2022-09-09T12:48:35.810Z,25.80
2022-09-09T12:51:04.664Z,25.70
2022-09-09T12:53:35.603Z,25.50
2022-09-09T12:56:09.090Z,25.30
2022-09-09T12:58:39.145Z,25.30
2022-09-09T13:01:07.930Z,25.40
2022-09-09T13:03:44.221Z,25.40
2022-09-09T13:06:28.827Z,25.50
2022-09-09T13:09:02.187Z,25.30
2022-09-09T13:11:57.754Z,25.30
2022-09-09T13:14:31.360Z,25.00
2022-09-09T13:17:07.480Z,24.80
2022-09-09T13:19:39.407Z,24.60
2022-09-09T13:22:28.820Z,24.50
2022-09-09T13:25:11.936Z,24.40
2022-09-09T13:27:54.629Z,24.60
2022-09-09T13:30:24.576Z,24.70
2022-09-09T13:33:23.923Z,24.80
2022-09-09T13:36:01.252Z,24.80
2022-09-09T13:38:31.108Z,24.60
2022-09-09T13:41:10.067Z,24.30
2022-09-09T13:43:43.840Z,24.00
2022-09-09T13:46:33.034Z,24.00
2022-09-09T13:49:02.775Z,23.90
2022-09-09T13:51:38.531Z,23.90
2022-09-09T13:54:08.007Z,24.00
2022-09-09T13:56:36.532Z,24.10
2022-09-09T13:59:08.016Z,24.00
2022-09-09T14:01:36.397Z,24.00
2022-09-09T14:04:10.358Z,23.80
2022-09-09T14:06:41.056Z,23.70
2022-09-09T14:09:16.743Z,23.60
2022-09-09T14:11:45.205Z,23.70
2022-09-09T14:14:12.566Z,23.70
2022-09-09T14:16:40.129Z,23.60
2022-09-09T14:19:07.496Z,23.60
2022-09-09T14:21:35.293Z,23.50
2022-09-09T14:24:03.733Z,23.50
2022-09-09T14:26:31.623Z,23.50
2022-09-09T14:28:59.262Z,23.40
2022-09-09T14:31:27.124Z,23.40
2022-09-09T14:33:55.135Z,23.30
2022-09-09T14:36:22.817Z,23.20
2022-09-09T14:38:50.308Z,23.20
2022-09-09T14:41:19.529Z,23.20
2022-09-09T14:43:47.584Z,23.10
2022-09-09T14:46:21.070Z,23.00
2022-09-09T14:51:32.497Z,22.90
2022-09-09T14:54:00.829Z,22.90
2022-09-09T14:56:31.068Z,23.00
2022-09-09T14:59:00.179Z,23.20
2022-09-09T15:01:28.555Z,23.30
2022-09-09T15:03:59.395Z,23.30
2022-09-09T15:06:28.998Z,23.40
2022-09-09T15:08:59.078Z,23.40
2022-09-09T15:11:29.558Z,23.40
2022-09-09T15:13:57.240Z,23.40
2022-09-09T15:16:27.885Z,23.30
2022-09-09T15:18:58.310Z,23.10
2022-09-09T15:21:30.726Z,23.00
2022-09-09T15:23:59.165Z,22.90
2022-09-09T15:26:28.408Z,22.80
2022-09-09T15:28:56.245Z,22.80
2022-09-09T15:31:26.083Z,22.70
2022-09-09T15:34:03.374Z,22.60
2022-09-09T15:36:35.309Z,22.60
2022-09-09T15:39:04.667Z,22.60
2022-09-09T15:41:35.226Z,22.50
2022-09-09T15:44:03.518Z,22.50
2022-09-09T15:46:37.915Z,22.50
2022-09-09T15:49:23.475Z,22.50
2022-09-09T15:52:04.718Z,22.40
2022-09-09T15:54:40.291Z,22.40
2022-09-09T15:57:13.179Z,22.30
2022-09-09T15:59:41.522Z,22.30
2022-09-09T16:02:11.015Z,22.30
2022-09-09T16:04:38.946Z,22.30
2022-09-09T16:07:07.281Z,22.30
2022-09-09T16:09:36.384Z,22.20
2022-09-09T16:12:11.215Z,22.10
2022-09-09T16:14:39.914Z,22.10
2022-09-09T16:17:07.802Z,22.00
2022-09-09T16:19:35.942Z,21.90
2022-09-09T16:22:05.368Z,21.80
2022-09-09T16:24:32.852Z,21.80
2022-09-09T16:27:01.096Z,21.80
2022-09-09T16:29:28.566Z,21.80
2022-09-09T16:31:58.877Z,21.70
2022-09-09T16:34:30.904Z,21.70
2022-09-09T16:36:58.812Z,21.60
2022-09-09T16:39:26.469Z,21.50
2022-09-09T16:41:54.215Z,21.50
2022-09-09T16:44:21.808Z,21.40
2022-09-09T16:46:56.863Z,21.40
2022-09-09T16:49:30.429Z,21.30
2022-09-09T16:52:00.311Z,21.30
2022-09-09T16:54:29.031Z,21.30
2022-09-09T16:56:57.397Z,21.20
2022-09-09T16:59:27.851Z,21.10
2022-09-09T17:01:58.478Z,21.10
2022-09-09T17:04:29.347Z,21.00
2022-09-09T17:06:58.676Z,20.90
2022-09-09T17:09:30.923Z,20.90
2022-09-09T17:11:58.671Z,20.80
2022-09-09T17:14:26.368Z,20.80
2022-09-09T17:16:54.136Z,20.70
2022-09-09T17:19:21.423Z,20.60
2022-09-09T17:24:36.994Z,20.50
2022-09-09T17:27:04.927Z,20.40
2022-09-09T17:29:32.252Z,20.40
2022-09-09T17:31:59.664Z,20.30
2022-09-09T17:34:27.121Z,20.30
2022-09-09T17:36:54.728Z,20.30
2022-09-09T17:39:22.162Z,20.20
2022-09-09T17:41:50.427Z,20.10
2022-09-09T17:44:19.149Z,20.10
2022-09-09T17:46:46.730Z,20.00
2022-09-09T17:49:16.621Z,20.00
2022-09-09T17:51:45.650Z,20.00
2022-09-09T17:54:26.047Z,20.00
2022-09-09T17:56:53.675Z,20.00
2022-09-09T17:59:21.639Z,19.90
2022-09-09T18:01:51.242Z,19.90
2022-09-09T18:04:20.714Z,19.90
2022-09-09T18:06:52.066Z,19.80
2022-09-09T18:09:23.960Z,19.80
2022-09-09T18:11:55.918Z,19.80
2022-09-09T18:14:26.277Z,19.80
2022-09-09T18:16:54.121Z,19.70
2022-09-09T18:19:25.238Z,19.70
2022-09-09T18:21:54.680Z,19.70
2022-09-09T18:24:24.075Z,19.70
2022-09-09T18:26:51.770Z,19.70
2022-09-09T18:29:25.398Z,19.60
2022-09-09T18:31:54.632Z,19.60
2022-09-09T18:34:23.551Z,19.60
2022-09-09T18:36:54.119Z,19.50
2022-09-09T18:39:25.294Z,19.50
2022-09-09T18:41:55.712Z,19.50
2022-09-09T18:44:30.643Z,19.50
2022-09-09T18:46:58.352Z,19.40
2022-09-09T18:49:27.769Z,19.40
2022-09-09T18:51:55.305Z,19.40
2022-09-09T18:54:30.488Z,19.40
2022-09-09T18:57:01.599Z,19.30
2022-09-09T18:59:29.687Z,19.30
2022-09-09T19:01:57.330Z,19.20
2022-09-09T19:04:27.653Z,19.20
2022-09-09T19:06:58.425Z,19.10
2022-09-09T19:09:32.283Z,19.10
2022-09-09T19:12:03.952Z,19.00
2022-09-09T19:14:35.559Z,18.90
2022-09-09T19:17:03.670Z,18.80
2022-09-09T19:19:32.996Z,18.70
2022-09-09T19:22:04.639Z,18.60
2022-09-09T19:24:33.809Z,18.60
2022-09-09T19:27:04.953Z,18.60
2022-09-09T19:29:34.978Z,18.50
2022-09-09T19:32:49.719Z,18.50
2022-09-09T19:34:53.497Z,18.60
2022-09-09T19:37:24.217Z,18.60
2022-09-09T19:39:55.882Z,18.60
2022-09-09T19:42:25.387Z,18.60
2022-09-09T19:44:52.884Z,18.70
2022-09-09T19:47:23.134Z,18.70
2022-09-09T19:49:53.636Z,18.60
2022-09-09T19:52:22.256Z,18.60
2022-09-09T19:54:50.136Z,18.60
2022-09-09T19:57:20.495Z,18.60
2022-09-09T19:59:48.753Z,18.60
2022-09-09T20:02:16.368Z,18.60
2022-09-09T20:04:43.886Z,18.60
2022-09-09T20:07:11.811Z,18.60
2022-09-09T20:09:40.195Z,18.50
2022-09-09T20:12:08.166Z,18.50
2022-09-09T20:14:39.552Z,18.40
2022-09-09T20:17:07.664Z,18.40
2022-09-09T20:19:41.338Z,18.40
2022-09-09T20:22:09.536Z,18.30
2022-09-09T20:24:37.311Z,18.20
2022-09-09T20:27:05.059Z,18.20
2022-09-09T20:29:32.530Z,18.30
2022-09-09T20:31:59.973Z,18.20
2022-09-09T20:34:28.461Z,18.20
2022-09-09T20:36:59.263Z,18.20
2022-09-09T20:39:28.070Z,18.10
2022-09-09T20:41:55.525Z,18.00
2022-09-09T20:44:24.521Z,18.00
2022-09-09T20:47:04.534Z,17.90
2022-09-09T20:49:32.228Z,18.00
2022-09-09T20:51:59.548Z,18.00
2022-09-09T20:54:30.803Z,18.10
2022-09-09T20:57:00.641Z,18.00
2022-09-09T20:59:30.064Z,18.00
2022-09-09T21:01:58.731Z,17.90
2022-09-09T21:04:26.371Z,17.90
2022-09-09T21:06:53.954Z,17.90
2022-09-09T21:09:23.562Z,17.90
2022-09-09T21:11:51.745Z,17.90
2022-09-09T21:14:19.089Z,18.00
2022-09-09T21:16:46.362Z,18.10
2022-09-09T21:19:13.784Z,18.00
2022-09-09T21:21:41.048Z,18.00
2022-09-09T21:24:08.279Z,18.00
2022-09-09T21:26:36.047Z,17.90
2022-09-09T21:29:03.856Z,17.90
2022-09-09T21:31:31.700Z,17.90
2022-09-09T21:33:59.909Z,17.90
2022-09-09T21:36:28.811Z,17.80
2022-09-09T21:38:57.034Z,17.90
2022-09-09T21:41:24.379Z,17.80
2022-09-09T21:43:55.499Z,17.70
2022-09-09T21:46:26.814Z,17.70
2022-09-09T21:48:56.675Z,17.60
2022-09-09T21:51:25.058Z,17.60
2022-09-09T21:53:57.060Z,17.50
2022-09-09T21:56:25.092Z,17.50
2022-09-09T21:59:00.016Z,17.40
2022-09-09T22:01:27.394Z,17.40
2022-09-09T22:03:55.246Z,17.30
2022-09-09T22:06:22.704Z,17.30
2022-09-09T22:08:59.308Z,17.20
2022-09-09T22:11:27.096Z,17.10
2022-09-09T22:13:54.370Z,16.80
2022-09-09T22:16:23.962Z,16.50
2022-09-09T22:18:53.548Z,16.30
2022-09-09T22:21:22.268Z,16.20
2022-09-09T22:23:54.880Z,16.10
2022-09-09T22:26:23.319Z,16.00
2022-09-09T22:28:51.735Z,15.90
2022-09-09T22:31:19.404Z,15.90
2022-09-09T22:33:47.143Z,15.80
2022-09-09T22:36:14.834Z,15.80
2022-09-09T22:38:42.144Z,15.80
2022-09-09T22:41:10.395Z,15.80
2022-09-09T22:43:37.974Z,15.80
2022-09-09T22:46:05.389Z,15.90
2022-09-09T22:48:36.285Z,16.00
2022-09-09T22:51:08.626Z,16.00
2022-09-09T22:53:36.423Z,16.00
2022-09-09T22:56:07.394Z,16.00
2022-09-09T22:58:37.155Z,16.10
2022-09-09T23:01:17.329Z,16.00
2022-09-09T23:03:47.994Z,16.00
2022-09-09T23:06:22.763Z,16.10
2022-09-09T23:08:58.691Z,16.00
2022-09-09T23:11:32.249Z,16.10
2022-09-09T23:14:01.625Z,16.00
2022-09-09T23:16:40.356Z,16.10
2022-09-09T23:19:10.508Z,16.00
2022-09-09T23:21:42.185Z,16.00
2022-09-09T23:24:12.235Z,16.00
2022-09-09T23:26:39.905Z,16.00
2022-09-09T23:29:07.231Z,16.00
2022-09-09T23:31:38.204Z,16.00
2022-09-09T23:34:06.377Z,16.00
2022-09-09T23:36:34.311Z,16.10
2022-09-09T23:39:04.705Z,16.00
2022-09-09T23:41:35.555Z,16.00
2022-09-09T23:44:04.615Z,16.00
2022-09-09T23:46:33.553Z,16.00
2022-09-09T23:49:02.795Z,16.00
2022-09-09T23:51:32.082Z,16.00
2022-09-09T23:54:03.243Z,16.00
2022-09-09T23:56:35.659Z,16.00
2022-09-09T23:59:03.369Z,16.00
